Time;durP1;ratioP1;P1;durP2;ratioP2;P2;SDS_P1;SDS_P2;PMS_P1;PMS_P2;Temp;Humidity;BMP_temperature;BMP_pressure;BME280_temperature;BME280_humidity;BME280_pressure;Samples;Min_cycle;Max_cycle;Signal;HPM_P1;HPM_P2
2023/10/03 00:01:13;;;;;;;28.73;25.63;;;21.30;99.90;;;;;;4894460;29;20475;-85
2023/10/03 00:03:41;;;;;;;31.50;25.97;;;21.30;99.90;;;;;;4894874;29;20827;-85
2023/10/03 00:06:10;;;;;;;31.13;26.27;;;21.20;99.90;;;;;;4893537;29;20580;-86
2023/10/03 00:08:38;;;;;;;29.73;26.60;;;21.20;99.90;;;;;;4890027;29;20463;-86
2023/10/03 00:11:16;;;;;;;31.33;26.20;;;21.20;99.90;;;;;;4893677;29;20449;-86
2023/10/03 00:13:47;;;;;;;30.97;26.80;;;21.10;99.90;;;;;;4889762;29;20471;-86
2023/10/03 00:16:15;;;;;;;38.10;27.63;;;21.10;99.90;;;;;;4891778;29;20517;-84
2023/10/03 00:18:44;;;;;;;27.97;24.97;;;21.10;99.90;;;;;;4887476;29;20498;-85
2023/10/03 00:21:13;;;;;;;28.73;25.67;;;21.10;99.90;;;;;;4887545;29;20483;-84
2023/10/03 00:24:01;;;;;;;31.07;27.57;;;21.10;99.90;;;;;;4888863;29;20459;-85
2023/10/03 00:26:33;;;;;;;30.13;26.27;;;21.10;99.90;;;;;;4901187;29;21248;-84
2023/10/03 00:29:03;;;;;;;29.90;25.93;;;21.10;99.90;;;;;;4888176;29;20461;-84
2023/10/03 00:31:33;;;;;;;36.27;28.40;;;21.00;99.90;;;;;;4890523;29;20930;-84
2023/10/03 00:34:01;;;;;;;29.90;26.40;;;21.00;99.90;;;;;;4890846;29;20462;-84
2023/10/03 00:36:31;;;;;;;33.03;26.53;;;21.00;99.90;;;;;;4889099;29;20527;-85
2023/10/03 00:38:59;;;;;;;29.27;25.80;;;21.00;99.90;;;;;;4888574;29;20460;-84
2023/10/03 00:41:29;;;;;;;33.17;27.67;;;21.00;99.90;;;;;;4889707;29;20498;-84
2023/10/03 00:44:01;;;;;;;30.70;25.17;;;21.00;99.90;;;;;;4888894;29;20897;-84
2023/10/03 00:46:32;;;;;;;29.03;24.47;;;21.00;99.90;;;;;;4889045;29;20483;-85
2023/10/03 00:49:08;;;;;;;30.23;26.87;;;20.90;99.90;;;;;;4885994;29;20459;-84
2023/10/03 00:51:37;;;;;;;30.27;27.00;;;20.90;99.90;;;;;;4889128;29;20467;-84
2023/10/03 00:54:06;;;;;;;28.40;25.57;;;20.80;99.90;;;;;;4887103;29;20464;-85
2023/10/03 00:56:34;;;;;;;28.83;25.90;;;20.80;99.90;;;;;;4888353;29;20483;-83
2023/10/03 00:59:03;;;;;;;30.60;26.87;;;20.80;99.90;;;;;;4882658;29;20479;-85
2023/10/03 01:01:33;;;;;;;29.63;24.73;;;20.80;99.90;;;;;;4883978;29;20487;-84
2023/10/03 01:04:01;;;;;;;31.83;27.40;;;20.80;99.90;;;;;;4891195;29;20486;-83
2023/10/03 01:06:29;;;;;;;29.30;26.10;;;20.80;99.90;;;;;;4890659;29;20575;-83
2023/10/03 01:09:00;;;;;;;27.97;24.90;;;20.80;99.90;;;;;;4892325;29;20471;-83
2023/10/03 01:11:29;;;;;;;27.57;24.60;;;20.90;99.90;;;;;;4894409;29;20463;-84
2023/10/03 01:13:59;;;;;;;27.37;24.20;;;20.80;99.90;;;;;;4888774;29;20475;-85
2023/10/03 01:16:30;;;;;;;29.30;26.17;;;20.80;99.90;;;;;;4892096;29;20530;-84
2023/10/03 01:19:09;;;;;;;28.40;25.70;;;20.80;99.90;;;;;;4903942;29;20467;-83
2023/10/03 01:21:40;;;;;;;29.87;26.67;;;20.80;99.90;;;;;;4890719;29;20494;-85
2023/10/03 01:24:13;;;;;;;27.33;24.63;;;20.70;99.90;;;;;;4890079;29;20461;-84
2023/10/03 01:26:41;;;;;;;27.13;24.33;;;20.70;99.90;;;;;;4892121;29;20475;-83
2023/10/03 01:29:09;;;;;;;31.37;23.77;;;20.80;99.90;;;;;;4892702;29;20553;-84
2023/10/03 01:31:37;;;;;;;27.50;24.67;;;20.70;99.90;;;;;;4890507;29;20458;-84
2023/10/03 01:34:05;;;;;;;28.57;24.90;;;20.70;99.90;;;;;;4893610;29;20466;-85
2023/10/03 01:36:34;;;;;;;30.20;25.00;;;20.70;99.90;;;;;;4894732;29;21034;-84
2023/10/03 01:39:02;;;;;;;27.40;24.63;;;20.70;99.90;;;;;;4895358;29;20461;-84
2023/10/03 01:41:34;;;;;;;27.13;24.43;;;20.60;99.90;;;;;;4892575;29;20528;-84
2023/10/03 01:44:03;;;;;;;26.77;24.17;;;20.60;99.90;;;;;;4908365;29;20491;-83
2023/10/03 01:46:31;;;;;;;28.57;25.70;;;20.60;99.90;;;;;;4892448;29;21006;-84
2023/10/03 01:48:59;;;;;;;27.30;24.50;;;20.60;99.90;;;;;;4893661;29;20471;-83
2023/10/03 01:51:28;;;;;;;30.63;26.37;;;20.50;99.90;;;;;;4892634;29;20471;-84
2023/10/03 01:53:57;;;;;;;28.37;25.50;;;20.50;99.90;;;;;;4894200;29;20564;-83
2023/10/03 01:56:25;;;;;;;27.13;24.33;;;20.60;99.90;;;;;;4893806;29;20499;-85
2023/10/03 01:58:55;;;;;;;27.13;24.00;;;20.60;99.90;;;;;;4894524;29;20478;-85
2023/10/03 02:01:26;;;;;;;27.47;22.90;;;20.60;99.90;;;;;;4892754;29;20557;-85
2023/10/03 02:03:55;;;;;;;31.67;25.40;;;20.50;99.90;;;;;;4891528;29;20460;-84
2023/10/03 02:06:24;;;;;;;29.13;26.07;;;20.50;99.90;;;;;;4892609;29;20524;-84
2023/10/03 02:08:52;;;;;;;30.03;24.47;;;20.50;99.90;;;;;;4892832;29;20467;-82
2023/10/03 02:11:26;;;;;;;28.03;25.33;;;20.40;99.90;;;;;;4891991;29;20486;-83
2023/10/03 02:13:59;;;;;;;26.50;23.90;;;20.40;99.90;;;;;;4892798;29;20463;-83
2023/10/03 02:16:28;;;;;;;26.30;23.70;;;20.30;99.90;;;;;;4890297;29;20487;-83
2023/10/03 02:18:57;;;;;;;26.00;23.30;;;20.30;99.90;;;;;;4895214;29;20487;-84
2023/10/03 02:21:25;;;;;;;27.43;23.83;;;20.30;99.90;;;;;;4893549;29;20459;-84
2023/10/03 02:23:53;;;;;;;27.23;24.27;;;20.30;99.90;;;;;;4895458;29;21089;-84
2023/10/03 02:26:22;;;;;;;25.20;22.60;;;20.30;99.90;;;;;;4890860;29;20488;-83
2023/10/03 02:28:50;;;;;;;27.37;24.57;;;20.30;99.90;;;;;;4891733;29;21300;-83
2023/10/03 02:31:20;;;;;;;25.30;22.70;;;20.20;99.90;;;;;;4891655;29;20539;-84
2023/10/03 02:33:49;;;;;;;24.73;22.30;;;20.20;99.90;;;;;;4890274;29;20554;-83
2023/10/03 02:36:18;;;;;;;25.57;22.83;;;20.30;99.90;;;;;;4891200;29;20483;-82
2023/10/03 02:38:47;;;;;;;25.30;22.80;;;20.20;99.90;;;;;;4891784;29;20463;-81
2023/10/03 02:41:16;;;;;;;23.90;21.50;;;20.30;99.90;;;;;;4889531;29;20477;-83
2023/10/03 02:43:46;;;;;;;24.70;22.30;;;20.30;99.90;;;;;;4891512;29;22441;-83
2023/10/03 02:46:15;;;;;;;25.10;22.67;;;20.40;99.90;;;;;;4892041;29;20477;-83
2023/10/03 02:48:45;;;;;;;24.37;22.00;;;20.40;99.90;;;;;;4891928;29;20588;-83
2023/10/03 02:51:14;;;;;;;23.37;21.27;;;20.40;99.90;;;;;;4892729;29;20895;-83
2023/10/03 02:53:43;;;;;;;23.27;20.97;;;20.40;99.90;;;;;;4889227;29;20489;-83
2023/10/03 02:56:15;;;;;;;23.43;21.33;;;20.40;99.90;;;;;;4888211;29;20479;-83
2023/10/03 02:58:44;;;;;;;24.30;22.10;;;20.50;99.90;;;;;;4891629;29;20837;-83
2023/10/03 03:01:12;;;;;;;24.13;21.70;;;20.50;99.90;;;;;;4890982;29;20501;-83
2023/10/03 03:03:42;;;;;;;23.30;21.00;;;20.50;99.90;;;;;;4903954;29;20487;-85
2023/10/03 03:06:14;;;;;;;23.63;21.37;;;20.50;99.90;;;;;;4898182;29;20519;-85
2023/10/03 03:08:44;;;;;;;22.47;19.97;;;20.60;99.90;;;;;;4898866;29;21053;-84
2023/10/03 03:11:13;;;;;;;23.60;21.30;;;20.60;99.90;;;;;;4898541;29;20563;-85
2023/10/03 03:13:41;;;;;;;22.83;20.73;;;20.60;99.90;;;;;;4901520;29;20888;-83
2023/10/03 03:16:11;;;;;;;22.97;20.77;;;20.60;99.90;;;;;;4900918;29;20467;-85
2023/10/03 03:18:41;;;;;;;22.07;19.83;;;20.60;99.90;;;;;;4898520;29;20504;-84
2023/10/03 03:21:13;;;;;;;22.37;20.27;;;20.60;99.90;;;;;;4891217;29;20483;-84
2023/10/03 03:23:52;;;;;;;22.97;20.97;;;20.70;99.90;;;;;;4889763;29;20483;-84
2023/10/03 03:26:22;;;;;;;22.23;20.30;;;20.70;99.90;;;;;;4895584;29;20503;-85
2023/10/03 03:29:05;;;;;;;22.67;20.47;;;20.60;99.90;;;;;;4897537;29;20461;-85
2023/10/03 03:31:41;;;;;;;23.70;21.70;;;20.60;99.90;;;;;;4892425;29;20548;-86
2023/10/03 03:34:17;;;;;;;23.17;21.07;;;20.60;99.90;;;;;;4895602;29;20556;-85
2023/10/03 03:36:56;;;;;;;21.63;19.83;;;20.60;99.90;;;;;;4892532;29;20491;-83
2023/10/03 03:39:27;;;;;;;21.50;19.60;;;20.60;99.90;;;;;;4891543;29;20981;-84
2023/10/03 03:41:56;;;;;;;22.30;20.20;;;20.60;99.90;;;;;;4902070;29;20559;-85
2023/10/03 03:44:25;;;;;;;22.10;20.07;;;20.50;99.90;;;;;;4888820;29;20489;-85
2023/10/03 03:46:54;;;;;;;22.23;19.83;;;20.50;99.90;;;;;;4889263;29;20503;-84
2023/10/03 03:49:23;;;;;;;21.07;19.13;;;20.50;99.90;;;;;;4893581;29;20965;-84
2023/10/03 03:51:54;;;;;;;21.17;19.10;;;20.60;99.90;;;;;;4889792;29;20467;-84
2023/10/03 03:54:22;;;;;;;20.97;19.00;;;20.60;99.90;;;;;;4890945;29;20452;-84
2023/10/03 03:56:51;;;;;;;21.07;19.17;;;20.60;99.90;;;;;;4889241;29;20499;-84
2023/10/03 03:59:19;;;;;;;21.60;19.60;;;20.60;99.90;;;;;;4889867;29;20459;-84
2023/10/03 04:02:02;;;;;;;21.60;19.53;;;20.60;99.90;;;;;;4885150;29;20467;-84
2023/10/03 04:04:31;;;;;;;19.37;17.67;;;20.60;99.90;;;;;;4888885;29;20574;-83
2023/10/03 04:07:02;;;;;;;19.60;18.00;;;20.60;99.90;;;;;;4892367;29;20515;-85
2023/10/03 04:09:31;;;;;;;18.87;17.27;;;20.60;99.90;;;;;;4890756;29;20465;-84
2023/10/03 04:11:59;;;;;;;19.70;17.80;;;20.60;99.90;;;;;;4891457;29;20575;-82
2023/10/03 04:14:28;;;;;;;20.90;19.00;;;20.70;99.90;;;;;;4892240;29;20534;-84
2023/10/03 04:16:56;;;;;;;19.87;18.00;;;20.70;99.90;;;;;;4893983;29;20522;-83
2023/10/03 04:19:25;;;;;;;20.00;18.17;;;20.60;99.90;;;;;;4893390;29;21070;-85
2023/10/03 04:21:53;;;;;;;20.20;18.37;;;20.70;99.90;;;;;;4893567;29;20993;-84
2023/10/03 04:24:23;;;;;;;20.27;18.47;;;20.60;99.90;;;;;;4892739;29;20470;-84
2023/10/03 04:26:54;;;;;;;21.30;19.20;;;20.70;99.90;;;;;;4890498;29;20541;-84
2023/10/03 04:29:22;;;;;;;20.43;18.53;;;20.70;99.90;;;;;;4890928;29;20531;-85
2023/10/03 04:31:54;;;;;;;21.97;19.60;;;20.60;99.90;;;;;;4904535;29;20556;-84
2023/10/03 04:34:27;;;;;;;20.10;18.20;;;20.60;99.90;;;;;;4887352;29;20455;-84
2023/10/03 04:36:57;;;;;;;19.93;18.43;;;20.60;99.90;;;;;;4894052;29;20510;-85
2023/10/03 04:39:27;;;;;;;20.03;18.33;;;20.50;99.90;;;;;;4893903;29;20840;-84
2023/10/03 04:41:56;;;;;;;21.60;19.60;;;20.50;99.90;;;;;;4894198;29;20448;-85
2023/10/03 04:44:24;;;;;;;19.40;17.70;;;20.50;99.90;;;;;;4894242;29;20472;-84
2023/10/03 04:46:52;;;;;;;19.57;17.77;;;20.50;99.90;;;;;;4896272;29;20489;-85
2023/10/03 04:49:20;;;;;;;19.90;18.27;;;20.50;99.90;;;;;;4893691;29;21366;-85
2023/10/03 04:51:49;;;;;;;19.27;17.57;;;20.60;99.90;;;;;;4888922;29;20471;-84
2023/10/03 04:54:17;;;;;;;19.80;18.23;;;20.60;99.90;;;;;;4893489;29;20450;-84
2023/10/03 04:56:48;;;;;;;18.83;17.43;;;20.60;99.90;;;;;;4887504;29;20547;-83
2023/10/03 04:59:20;;;;;;;19.33;17.93;;;20.60;99.90;;;;;;4875196;29;20485;-85
2023/10/03 05:01:49;;;;;;;19.37;17.70;;;20.60;99.90;;;;;;4890189;29;20556;-83
2023/10/03 05:04:18;;;;;;;20.20;18.67;;;20.60;99.90;;;;;;4892691;29;20486;-83
2023/10/03 05:06:47;;;;;;;18.90;17.33;;;20.60;99.90;;;;;;4892376;29;21136;-85
2023/10/03 05:09:17;;;;;;;18.07;16.63;;;20.60;99.90;;;;;;4889837;29;20472;-83
2023/10/03 05:11:50;;;;;;;18.43;16.83;;;20.60;99.90;;;;;;4903883;29;20463;-84
2023/10/03 05:14:18;;;;;;;17.93;16.40;;;20.60;99.90;;;;;;4894377;29;20455;-84
2023/10/03 05:16:50;;;;;;;17.93;16.53;;;20.60;99.90;;;;;;4894505;29;20898;-84
2023/10/03 05:19:19;;;;;;;18.73;17.10;;;20.60;99.90;;;;;;4892768;29;20576;-83
2023/10/03 05:21:47;;;;;;;18.67;16.93;;;20.60;99.90;;;;;;4893429;29;21130;-84
2023/10/03 05:24:16;;;;;;;18.10;16.50;;;20.60;99.90;;;;;;4895292;29;20928;-83
2023/10/03 05:26:44;;;;;;;18.23;16.43;;;20.50;99.90;;;;;;4890740;29;20500;-83
2023/10/03 05:29:15;;;;;;;17.90;16.30;;;20.50;99.90;;;;;;4893040;29;20461;-86
2023/10/03 05:31:44;;;;;;;18.47;16.70;;;20.50;99.90;;;;;;4893897;29;20471;-84
2023/10/03 05:34:12;;;;;;;17.97;16.40;;;20.50;99.90;;;;;;4892475;29;20996;-85
2023/10/03 05:36:40;;;;;;;18.83;17.13;;;20.50;99.90;;;;;;4894735;29;20492;-83
2023/10/03 05:39:11;;;;;;;18.30;16.70;;;20.50;99.90;;;;;;4895720;29;20535;-85
2023/10/03 05:41:41;;;;;;;17.23;15.77;;;20.50;99.90;;;;;;4891123;29;20467;-84
2023/10/03 05:44:11;;;;;;;17.87;16.10;;;20.50;99.90;;;;;;4893846;29;20512;-84
2023/10/03 05:46:42;;;;;;;16.40;15.10;;;20.60;99.90;;;;;;4893552;29;20487;-84
2023/10/03 05:49:10;;;;;;;16.87;15.47;;;20.60;99.90;;;;;;4893851;29;20541;-84
2023/10/03 05:51:39;;;;;;;18.00;16.60;;;20.60;99.90;;;;;;4893860;29;20495;-83
2023/10/03 05:54:08;;;;;;;16.97;15.37;;;20.60;99.90;;;;;;4907142;29;20999;-84
2023/10/03 05:56:37;;;;;;;18.50;17.17;;;20.60;99.90;;;;;;4888674;29;20475;-83
2023/10/03 05:59:06;;;;;;;16.90;15.60;;;20.60;99.90;;;;;;4891755;29;20458;-85
2023/10/03 06:01:35;;;;;;;17.17;15.77;;;20.60;99.90;;;;;;4892219;29;20472;-85
2023/10/03 06:04:05;;;;;;;16.00;14.80;;;20.70;99.90;;;;;;4897553;29;20572;-83
2023/10/03 06:06:33;;;;;;;17.17;15.90;;;20.70;99.90;;;;;;4898461;29;20498;-85
2023/10/03 06:09:02;;;;;;;15.83;14.53;;;20.70;99.90;;;;;;4899135;29;20469;-85
2023/10/03 06:11:31;;;;;;;15.67;14.40;;;20.70;99.90;;;;;;4893006;29;20558;-85
2023/10/03 06:13:59;;;;;;;15.93;14.93;;;20.80;99.90;;;;;;4893465;29;20462;-85
2023/10/03 06:16:28;;;;;;;16.00;14.80;;;20.80;99.90;;;;;;4893298;29;20566;-86
2023/10/03 06:18:57;;;;;;;15.83;14.70;;;20.80;99.90;;;;;;4895433;29;21052;-85
2023/10/03 06:21:29;;;;;;;15.90;14.70;;;20.80;99.90;;;;;;4893449;29;20528;-85
2023/10/03 06:23:58;;;;;;;16.83;15.50;;;20.80;99.90;;;;;;4891646;29;20963;-84
2023/10/03 06:26:26;;;;;;;15.70;14.50;;;20.80;99.90;;;;;;4890925;29;20507;-85
2023/10/03 06:28:54;;;;;;;15.83;14.50;;;20.80;99.90;;;;;;4885357;29;20459;-84
2023/10/03 06:31:23;;;;;;;15.50;14.27;;;20.90;99.90;;;;;;4889018;29;20477;-83
2023/10/03 06:33:51;;;;;;;16.67;15.17;;;20.90;99.90;;;;;;4897413;29;20461;-84
2023/10/03 06:36:20;;;;;;;15.07;14.03;;;21.00;99.90;;;;;;4894825;29;20480;-85
2023/10/03 06:38:50;;;;;;;15.37;14.27;;;21.00;99.90;;;;;;4894966;29;20472;-85
2023/10/03 06:41:20;;;;;;;15.33;14.17;;;21.00;99.90;;;;;;4889790;29;20468;-79
2023/10/03 06:43:49;;;;;;;13.67;12.77;;;21.00;99.90;;;;;;4883231;29;20455;-80
2023/10/03 06:46:20;;;;;;;14.43;13.47;;;21.10;99.90;;;;;;4888963;29;20526;-79
2023/10/03 06:48:52;;;;;;;13.53;12.63;;;21.10;99.90;;;;;;4888105;29;20460;-80
2023/10/03 06:51:20;;;;;;;14.10;13.10;;;21.20;99.90;;;;;;4885465;29;20460;-77
2023/10/03 06:53:52;;;;;;;14.40;13.30;;;21.20;99.90;;;;;;4885452;29;20467;-75
2023/10/03 06:56:20;;;;;;;14.30;13.40;;;21.30;99.90;;;;;;4888152;29;20482;-78
2023/10/03 06:58:48;;;;;;;14.40;13.20;;;21.30;99.90;;;;;;4883496;29;20470;-78
2023/10/03 07:01:17;;;;;;;13.23;12.43;;;21.30;99.90;;;;;;4882414;29;20459;-77
2023/10/03 07:03:45;;;;;;;14.30;13.30;;;21.30;99.90;;;;;;4885761;29;20451;-77
2023/10/03 07:06:14;;;;;;;14.40;13.40;;;21.30;99.90;;;;;;4887709;29;20505;-77
2023/10/03 07:08:42;;;;;;;15.20;14.10;;;21.40;99.90;;;;;;4886449;29;20464;-77
2023/10/03 07:11:16;;;;;;;14.20;13.20;;;21.40;99.90;;;;;;4887444;29;20562;-77
2023/10/03 07:13:45;;;;;;;14.20;13.27;;;21.40;99.90;;;;;;4887814;29;20457;-77
2023/10/03 07:16:13;;;;;;;15.67;14.60;;;21.40;99.90;;;;;;4890094;29;21322;-77
2023/10/03 07:18:43;;;;;;;14.60;13.70;;;21.50;99.90;;;;;;4901421;29;20887;-76
2023/10/03 07:21:11;;;;;;;14.67;13.77;;;21.60;99.90;;;;;;4886213;29;20520;-77
2023/10/03 07:23:40;;;;;;;14.17;13.33;;;21.60;99.90;;;;;;4889080;29;20478;-81
2023/10/03 07:26:13;;;;;;;15.27;14.20;;;21.70;99.90;;;;;;4888392;29;20483;-81
2023/10/03 07:28:42;;;;;;;14.70;13.60;;;21.80;99.90;;;;;;4892507;29;20513;-81
2023/10/03 07:31:13;;;;;;;14.77;13.80;;;21.80;99.90;;;;;;4888701;29;20532;-82
2023/10/03 07:33:43;;;;;;;15.30;14.50;;;21.80;99.90;;;;;;4893173;29;20466;-79
2023/10/03 07:36:12;;;;;;;15.47;14.43;;;21.90;99.90;;;;;;4897714;29;20484;-81
2023/10/03 07:38:40;;;;;;;14.97;14.13;;;21.90;99.90;;;;;;4896337;29;20463;-81
2023/10/03 07:41:10;;;;;;;14.43;13.50;;;21.90;99.90;;;;;;4893189;29;21189;-81
2023/10/03 07:43:41;;;;;;;15.13;13.80;;;22.10;99.90;;;;;;4888857;29;20577;-81
2023/10/03 07:46:09;;;;;;;15.10;14.10;;;22.20;99.90;;;;;;4893651;29;21047;-81
2023/10/03 07:48:42;;;;;;;15.73;14.33;;;22.40;99.90;;;;;;4894572;29;21058;-80
2023/10/03 07:51:29;;;;;;;14.73;13.80;;;22.60;99.90;;;;;;4893554;29;20447;-80
2023/10/03 07:53:58;;;;;;;15.40;14.30;;;22.90;99.90;;;;;;4890818;29;20477;-80
2023/10/03 07:56:30;;;;;;;13.73;13.00;;;23.10;99.90;;;;;;4887344;29;20997;-78
2023/10/03 07:59:02;;;;;;;14.33;13.43;;;23.40;99.90;;;;;;4884414;29;20475;-78
2023/10/03 08:01:32;;;;;;;14.63;13.63;;;23.70;99.90;;;;;;4886750;29;20546;-78
2023/10/03 08:04:07;;;;;;;13.90;13.10;;;24.10;99.90;;;;;;4902860;29;21546;-78
2023/10/03 08:06:37;;;;;;;14.80;13.87;;;24.20;99.90;;;;;;4888285;29;20501;-79
2023/10/03 08:09:06;;;;;;;13.70;12.80;;;24.50;99.90;;;;;;4891203;29;20471;-80
2023/10/03 08:11:34;;;;;;;12.90;12.17;;;25.20;99.90;;;;;;4887974;29;20545;-81
2023/10/03 08:14:11;;;;;;;14.30;13.10;;;25.60;99.90;;;;;;4891587;29;20587;-81
2023/10/03 08:16:40;;;;;;;13.50;12.57;;;26.00;99.90;;;;;;4888270;29;20479;-81
2023/10/03 08:19:09;;;;;;;12.00;11.40;;;26.20;99.90;;;;;;4890020;29;20467;-82
2023/10/03 08:21:43;;;;;;;12.80;12.00;;;26.80;99.90;;;;;;4888611;29;20456;-82
2023/10/03 08:24:14;;;;;;;13.27;12.47;;;27.10;99.90;;;;;;4887176;29;20450;-82
2023/10/03 08:26:46;;;;;;;12.87;11.93;;;27.30;99.90;;;;;;4889704;29;20497;-81
2023/10/03 08:29:21;;;;;;;13.60;12.57;;;27.10;99.90;;;;;;4890130;29;20491;-82
2023/10/03 08:31:50;;;;;;;12.83;12.13;;;27.10;99.90;;;;;;4885934;29;20500;-81
2023/10/03 08:34:19;;;;;;;12.70;12.00;;;26.80;99.90;;;;;;4886926;29;20464;-81
2023/10/03 08:36:53;;;;;;;13.90;13.00;;;26.70;99.90;;;;;;4885239;29;20501;-82
2023/10/03 08:39:26;;;;;;;12.70;11.90;;;26.60;99.90;;;;;;4890125;29;20482;-81
2023/10/03 08:42:11;;;;;;;13.67;12.77;;;26.40;99.90;;;;;;4888733;29;20774;-80
2023/10/03 08:44:51;;;;;;;12.70;11.87;;;26.20;99.90;;;;;;4883709;29;20467;-81
2023/10/03 08:47:28;;;;;;;12.57;11.97;;;26.00;99.90;;;;;;4885436;29;20494;-80
2023/10/03 08:50:10;;;;;;;13.00;12.17;;;26.20;99.90;;;;;;4884795;29;20459;-80
2023/10/03 08:56:08;;;;;;;13.57;12.67;;;26.00;99.90;;;;;;4882363;29;20483;-81
2023/10/03 08:58:48;;;;;;;12.70;12.00;;;25.80;99.90;;;;;;4892853;29;20518;-81
2023/10/03 09:01:19;;;;;;;12.83;12.23;;;25.70;99.90;;;;;;4890793;29;20462;-81
2023/10/03 09:03:51;;;;;;;14.40;13.43;;;25.50;99.90;;;;;;4889886;29;20495;-81
2023/10/03 09:06:23;;;;;;;13.97;13.17;;;25.50;99.90;;;;;;4890495;29;20873;-81
2023/10/03 09:09:08;;;;;;;13.40;12.60;;;25.40;99.90;;;;;;4887373;29;20459;-83
2023/10/03 09:11:38;;;;;;;14.47;13.47;;;25.20;99.90;;;;;;4889059;29;20530;-81
2023/10/03 09:14:06;;;;;;;13.70;12.80;;;25.30;99.90;;;;;;4885656;29;20479;-80
2023/10/03 09:16:38;;;;;;;13.50;12.50;;;25.30;99.90;;;;;;4889282;29;20474;-81
2023/10/03 09:19:10;;;;;;;14.33;13.53;;;25.30;99.90;;;;;;4889855;29;21285;-81
2023/10/03 09:21:38;;;;;;;13.37;12.40;;;25.20;99.90;;;;;;4889285;29;20470;-80
2023/10/03 09:24:14;;;;;;;13.37;12.67;;;25.10;99.90;;;;;;4889561;29;20926;-82
2023/10/03 09:26:46;;;;;;;11.97;11.40;;;25.20;99.90;;;;;;4891484;29;20549;-81
2023/10/03 09:29:19;;;;;;;12.70;12.10;;;25.20;99.90;;;;;;4892550;29;21290;-81
2023/10/03 09:31:49;;;;;;;14.67;13.77;;;25.20;99.90;;;;;;4891298;29;20565;-81
2023/10/03 09:34:18;;;;;;;13.23;12.53;;;25.30;99.90;;;;;;4893223;29;20462;-81
2023/10/03 09:36:48;;;;;;;13.00;12.30;;;25.40;99.90;;;;;;4893531;29;20475;-81
2023/10/03 09:39:22;;;;;;;13.40;12.70;;;25.80;99.90;;;;;;4890660;29;20472;-80
2023/10/03 09:41:55;;;;;;;14.03;13.10;;;27.10;99.90;;;;;;4904864;29;20473;-81
2023/10/03 09:44:30;;;;;;;13.10;12.40;;;27.70;99.90;;;;;;4888097;29;20521;-81
2023/10/03 09:47:04;;;;;;;12.53;11.83;;;28.00;99.90;;;;;;4884324;29;20491;-82
2023/10/03 09:49:38;;;;;;;12.83;12.13;;;28.00;99.90;;;;;;4885039;29;20477;-81
2023/10/03 09:52:09;;;;;;;13.70;12.90;;;28.10;99.90;;;;;;4888489;29;20466;-81
2023/10/03 09:54:39;;;;;;;12.20;11.70;;;28.00;99.90;;;;;;4890067;29;20555;-81
2023/10/03 09:57:18;;;;;;;12.30;11.60;;;27.90;99.90;;;;;;4888277;29;20564;-81
2023/10/03 09:59:48;;;;;;;11.80;11.20;;;28.00;99.90;;;;;;4890472;29;20454;-81
2023/10/03 10:02:30;;;;;;;12.67;12.00;;;28.10;99.90;;;;;;4890695;29;21571;-81
2023/10/03 10:05:02;;;;;;;12.27;11.10;;;27.90;99.90;;;;;;4888862;29;20472;-81
2023/10/03 10:07:35;;;;;;;13.07;12.20;;;27.50;99.90;;;;;;4890144;29;20492;-81
2023/10/03 10:10:07;;;;;;;12.60;11.80;;;27.40;99.90;;;;;;4891894;29;20463;-82
2023/10/03 10:12:42;;;;;;;13.30;12.60;;;27.20;99.90;;;;;;4887991;29;20550;-82
2023/10/03 10:15:26;;;;;;;12.83;12.07;;;27.10;99.90;;;;;;4883382;29;21628;-82
2023/10/03 10:17:56;;;;;;;13.30;12.30;;;26.80;99.90;;;;;;4884970;29;20463;-83
2023/10/03 10:20:32;;;;;;;13.67;12.47;;;26.80;99.90;;;;;;4890394;29;20479;-82
2023/10/03 10:23:35;;;;;;;12.77;12.07;;;26.60;99.90;;;;;;4888346;29;20552;-83
2023/10/03 10:26:28;;;;;;;12.70;11.93;;;26.60;99.90;;;;;;4885028;29;21193;-82
2023/10/03 10:29:08;;;;;;;13.73;12.93;;;26.50;99.90;;;;;;4889979;29;20451;-82
2023/10/03 10:31:44;;;;;;;13.43;12.73;;;26.40;99.90;;;;;;4887904;29;20518;-82
2023/10/03 10:34:40;;;;;;;13.47;12.67;;;26.30;99.90;;;;;;4887403;29;21052;-82
2023/10/03 10:37:15;;;;;;;12.77;12.17;;;26.30;99.90;;;;;;4890620;29;20479;-82
2023/10/03 10:40:11;;;;;;;13.07;12.20;;;26.20;99.90;;;;;;4887318;29;20599;-80
2023/10/03 10:43:01;;;;;;;13.20;12.53;;;26.20;99.90;;;;;;4891382;29;20543;-81
2023/10/03 10:45:37;;;;;;;14.53;13.70;;;26.30;99.90;;;;;;4886599;29;20464;-81
2023/10/03 10:48:08;;;;;;;14.13;13.43;;;26.60;99.90;;;;;;4883419;29;20484;-82
2023/10/03 10:51:16;;;;;;;14.27;13.40;;;27.10;99.90;;;;;;4887251;29;21061;-82
2023/10/03 10:53:47;;;;;;;14.30;13.60;;;27.40;99.90;;;;;;4887564;29;20890;-81
2023/10/03 10:56:18;;;;;;;13.83;13.23;;;27.90;99.90;;;;;;4887610;29;20570;-81
2023/10/03 10:58:53;;;;;;;14.80;13.90;;;28.30;99.90;;;;;;4887499;29;21263;-82
2023/10/03 11:01:32;;;;;;;14.80;14.03;;;28.60;99.90;;;;;;4887451;29;20569;-81
2023/10/03 11:04:02;;;;;;;13.53;12.83;;;28.90;99.90;;;;;;4889481;29;20709;-82
2023/10/03 11:06:32;;;;;;;14.27;13.37;;;29.20;99.90;;;;;;4888195;29;20485;-81
2023/10/03 11:09:00;;;;;;;13.50;12.50;;;29.20;99.90;;;;;;4890464;29;20470;-82
2023/10/03 11:11:38;;;;;;;14.03;13.23;;;29.40;99.90;;;;;;4890382;29;20464;-82
2023/10/03 11:14:07;;;;;;;12.40;11.77;;;29.10;99.90;;;;;;4888342;29;20978;-81
2023/10/03 11:16:35;;;;;;;12.27;11.70;;;28.80;99.90;;;;;;4888237;29;21327;-79
2023/10/03 11:19:04;;;;;;;11.80;11.10;;;28.40;99.90;;;;;;4886804;29;20946;-80
2023/10/03 11:21:34;;;;;;;13.60;12.80;;;28.20;99.90;;;;;;4889325;29;20266;-81
2023/10/03 11:24:24;;;;;;;12.43;11.73;;;27.90;99.90;;;;;;4887231;29;20987;-80
2023/10/03 11:26:54;;;;;;;13.50;12.70;;;27.40;99.90;;;;;;4884129;29;20536;-80
2023/10/03 11:29:37;;;;;;;13.63;12.80;;;27.30;99.90;;;;;;4888664;29;20488;-80
2023/10/03 11:32:06;;;;;;;13.90;12.90;;;27.20;99.90;;;;;;4890228;29;20458;-80
2023/10/03 11:34:36;;;;;;;12.50;11.87;;;27.10;99.90;;;;;;4889107;29;21009;-82
2023/10/03 11:37:06;;;;;;;13.40;12.60;;;27.10;99.90;;;;;;4887825;29;20474;-82
2023/10/03 11:39:38;;;;;;;13.97;13.17;;;27.20;99.90;;;;;;4902613;29;20488;-81
2023/10/03 11:42:26;;;;;;;13.70;12.90;;;27.10;99.90;;;;;;4885601;29;20877;-81
2023/10/03 11:45:01;;;;;;;13.70;12.83;;;27.10;99.90;;;;;;4887055;29;20461;-84
2023/10/03 11:47:30;;;;;;;12.43;11.83;;;27.10;99.90;;;;;;4882138;29;20500;-81
2023/10/03 11:49:59;;;;;;;12.47;11.87;;;27.00;99.90;;;;;;4888763;29;20916;-81
2023/10/03 11:52:29;;;;;;;13.00;12.37;;;27.00;99.90;;;;;;4888707;29;20449;-81
2023/10/03 11:54:58;;;;;;;13.90;13.10;;;26.90;99.90;;;;;;4889461;29;20490;-81
2023/10/03 11:57:29;;;;;;;13.20;12.50;;;27.10;99.90;;;;;;4909196;29;20515;-81
2023/10/03 12:00:03;;;;;;;13.63;12.93;;;27.10;99.90;;;;;;4887390;29;20619;-80
2023/10/03 12:02:33;;;;;;;13.23;12.33;;;27.20;99.90;;;;;;4892513;29;20469;-81
2023/10/03 12:05:04;;;;;;;13.83;13.13;;;27.10;99.90;;;;;;4889341;29;20593;-80
2023/10/03 12:07:39;;;;;;;14.00;13.10;;;27.10;99.90;;;;;;4891489;29;20526;-80
2023/10/03 12:10:12;;;;;;;13.30;12.70;;;27.10;99.90;;;;;;4895346;29;20577;-80
2023/10/03 12:12:46;;;;;;;13.53;12.80;;;27.10;99.90;;;;;;4893555;29;20456;-80
2023/10/03 12:15:23;;;;;;;13.50;12.53;;;27.00;99.90;;;;;;4892226;29;20541;-80
2023/10/03 12:17:52;;;;;;;13.43;12.47;;;26.90;99.90;;;;;;4909460;29;21287;-80
2023/10/03 12:20:22;;;;;;;13.33;12.60;;;26.80;99.90;;;;;;4902359;29;20482;-80
2023/10/03 12:22:54;;;;;;;13.80;13.00;;;26.70;99.90;;;;;;4892480;29;20769;-80
2023/10/03 12:25:26;;;;;;;13.40;12.13;;;26.70;99.90;;;;;;4888531;29;20461;-80
2023/10/03 12:27:55;;;;;;;13.50;12.70;;;26.60;99.90;;;;;;4891741;29;20481;-80
2023/10/03 12:30:23;;;;;;;13.03;12.23;;;26.50;99.90;;;;;;4893100;29;20472;-80
2023/10/03 12:32:53;;;;;;;12.80;12.13;;;26.50;99.90;;;;;;4891736;29;20475;-80
2023/10/03 12:35:22;;;;;;;12.80;12.13;;;26.40;99.90;;;;;;4891700;29;20681;-80
2023/10/03 12:37:53;;;;;;;13.33;12.53;;;26.30;99.90;;;;;;4893014;29;20510;-80
2023/10/03 12:40:22;;;;;;;13.77;12.87;;;26.20;99.90;;;;;;4892660;29;20637;-80
2023/10/03 12:42:51;;;;;;;13.10;12.20;;;26.20;99.90;;;;;;4889355;29;20500;-80
2023/10/03 12:45:21;;;;;;;14.33;13.10;;;26.10;99.90;;;;;;4890250;29;20483;-78
2023/10/03 12:47:53;;;;;;;13.70;12.83;;;26.10;99.90;;;;;;4891334;29;20480;-80
2023/10/03 12:50:23;;;;;;;14.10;13.00;;;26.10;99.90;;;;;;4886296;29;20567;-80
2023/10/03 12:52:53;;;;;;;14.47;12.63;;;26.00;99.90;;;;;;4889111;29;20460;-80